KEPH/EPH METAR and TAF weather

Enter ICAO airport designator
Station Type Date Time Source
KEPH METAR 2019/04/18 14:53 UTC NOAA

KEPH 181453Z AUTO 02005KT 10SM -RA FEW070 OVC095 08/04 A3024 RMK AO2 RAB44 SLP241 P0000 60000 T00830039 53005


Station Type Date Time Source
KEPH Decoded METAR 2019/04/18 14:53 UTC NOAA

EPHRATA MUNICIPAL AIRPORT, WA, United States (KEPH) 47-18N 119-31W 383M
Apr 18, 2019 - 10:53 AM EDT / 2019.04.18 1453 UTC
Wind: from the NNE (020 degrees) at 6 MPH (5 KT):0
Visibility: 10 mile(s):0
Sky conditions: overcast
Weather: light rain
Precipitation last hour: A trace
Temperature: 46.9 F (8.3 C)
Dew Point: 39.0 F (3.9 C)
Relative Humidity: 73%
Pressure (altimeter): 30.24 in. Hg (1024 hPa)
Pressure tendency: 0.01 inches (0.5 hPa) higher than three hours ago
ob: KEPH 181453Z AUTO 02005KT 10SM -RA FEW070 OVC095 08/04 A3024 RMK AO2 RAB44 SLP241 P0000 60000 T00830039 53005
cycle: 15

Station Type Date Time Source
KEPH TAF UTC NOAA

Error!

Example: see airport list